createdAt,value
2019-02-11T00:01:09.805Z,2.63
2019-02-11T00:03:37.755Z,2.53
2019-02-11T00:06:05.743Z,3.17
2019-02-11T00:08:33.747Z,3.53
2019-02-11T00:11:03.413Z,3.23
2019-02-11T00:13:31.744Z,3.00
2019-02-11T00:15:59.744Z,2.47
2019-02-11T00:18:27.727Z,2.37
2019-02-11T00:20:55.742Z,2.90
2019-02-11T00:23:23.693Z,2.60
2019-02-11T00:25:51.672Z,2.40
2019-02-11T00:28:20.964Z,2.77
2019-02-11T00:30:49.879Z,2.63
2019-02-11T00:33:18.197Z,2.63
2019-02-11T00:35:46.349Z,2.97
2019-02-11T00:38:14.389Z,3.03
2019-02-11T00:40:42.384Z,2.60
2019-02-11T00:43:18.722Z,2.17
2019-02-11T00:45:40.128Z,2.43
2019-02-11T00:48:08.065Z,2.47
2019-02-11T00:50:36.019Z,2.90
2019-02-11T00:53:04.015Z,2.77
2019-02-11T00:55:31.948Z,2.83
2019-02-11T00:58:00.097Z,2.67
2019-02-11T01:00:28.029Z,2.87
2019-02-11T01:02:56.025Z,2.77
2019-02-11T01:05:23.961Z,2.50
2019-02-11T01:07:54.504Z,2.90
2019-02-11T01:10:22.898Z,2.70
2019-02-11T01:12:50.900Z,3.00
2019-02-11T01:15:19.368Z,3.50
2019-02-11T01:17:47.468Z,3.00
2019-02-11T01:20:15.388Z,2.80
2019-02-11T01:22:43.352Z,2.90
2019-02-11T01:25:12.092Z,3.10
2019-02-11T01:27:40.046Z,2.90
2019-02-11T01:30:11.932Z,3.00
2019-02-11T01:32:39.977Z,2.57
2019-02-11T01:35:08.475Z,2.43
2019-02-11T01:37:36.480Z,2.77
2019-02-11T01:40:06.641Z,2.77
2019-02-11T01:42:37.706Z,2.43
2019-02-11T01:45:06.973Z,2.87
2019-02-11T01:47:35.513Z,2.83
2019-02-11T01:50:03.464Z,2.63
2019-02-11T01:52:31.475Z,2.60
2019-02-11T01:54:59.468Z,2.90
2019-02-11T01:57:27.376Z,2.70
2019-02-11T01:59:56.619Z,3.60
2019-02-11T02:02:24.658Z,3.17
2019-02-11T02:04:53.056Z,3.10
2019-02-11T02:07:21.091Z,2.97
2019-02-11T02:09:49.202Z,2.93
2019-02-11T02:12:17.283Z,2.80
2019-02-11T02:14:45.280Z,2.80
2019-02-11T02:17:14.289Z,2.70
2019-02-11T02:19:42.311Z,2.93
2019-02-11T02:22:10.245Z,2.13
2019-02-11T02:24:38.153Z,2.83
2019-02-11T02:27:06.101Z,2.70
2019-02-11T02:29:34.448Z,2.20
2019-02-11T02:32:02.877Z,3.23
2019-02-11T02:34:30.833Z,2.60
2019-02-11T02:36:58.748Z,2.80
2019-02-11T02:39:26.761Z,2.60
2019-02-11T02:41:54.691Z,3.40
2019-02-11T02:44:22.809Z,2.63
2019-02-11T02:46:51.053Z,2.23
2019-02-11T02:49:19.422Z,2.80
2019-02-11T02:51:47.460Z,3.50
2019-02-11T02:54:15.431Z,3.17
2019-02-11T02:56:43.670Z,2.70
2019-02-11T02:59:11.807Z,3.10
2019-02-11T03:01:39.890Z,3.43
2019-02-11T03:04:07.986Z,3.27
2019-02-11T03:06:39.035Z,2.90
2019-02-11T03:09:07.136Z,2.83
2019-02-11T03:11:35.150Z,2.87
2019-02-11T03:14:05.615Z,2.80
2019-02-11T03:16:33.103Z,2.67
2019-02-11T03:19:01.112Z,2.80
2019-02-11T03:21:29.140Z,3.13
2019-02-11T03:23:57.550Z,3.13
2019-02-11T03:26:25.487Z,2.43
2019-02-11T03:28:53.513Z,2.90
2019-02-11T03:31:21.490Z,2.70
2019-02-11T03:33:49.875Z,2.47
2019-02-11T03:36:17.852Z,2.43
2019-02-11T03:38:45.860Z,3.33
2019-02-11T03:41:13.804Z,3.07
2019-02-11T03:43:41.782Z,2.70
2019-02-11T03:46:12.899Z,2.30
2019-02-11T03:48:40.830Z,2.67
2019-02-11T03:51:08.729Z,2.80
2019-02-11T03:53:36.754Z,4.00
2019-02-11T03:56:04.849Z,3.80
2019-02-11T03:58:33.319Z,3.13
2019-02-11T04:01:01.375Z,3.03
2019-02-11T04:03:29.713Z,2.70
2019-02-11T04:05:57.709Z,3.10
2019-02-11T04:08:25.734Z,2.87
2019-02-11T04:10:53.647Z,3.17
2019-02-11T04:13:21.688Z,2.80
2019-02-11T04:15:49.841Z,3.40
2019-02-11T04:18:17.869Z,2.90
2019-02-11T04:20:45.898Z,2.30
2019-02-11T04:23:15.200Z,2.30
2019-02-11T04:25:43.133Z,3.23
2019-02-11T04:28:11.133Z,2.67
2019-02-11T04:30:39.057Z,2.17
2019-02-11T04:33:07.025Z,2.70
2019-02-11T04:35:34.978Z,2.67
2019-02-11T04:38:03.058Z,2.60
2019-02-11T04:40:31.035Z,2.47
2019-02-11T04:42:59.021Z,2.50
2019-02-11T04:45:27.017Z,2.53
2019-02-11T04:47:55.086Z,2.37
2019-02-11T04:50:23.068Z,3.13
2019-02-11T04:52:51.020Z,2.40
2019-02-11T04:55:18.974Z,2.63
2019-02-11T04:57:47.099Z,2.67
2019-02-11T05:00:15.467Z,2.83
2019-02-11T05:02:43.432Z,2.50
2019-02-11T05:05:13.325Z,2.93
2019-02-11T05:07:41.353Z,2.43
2019-02-11T05:10:10.308Z,2.93
2019-02-11T05:12:38.334Z,2.90
2019-02-11T05:15:06.471Z,2.23
2019-02-11T05:17:34.486Z,2.37
2019-02-11T05:20:02.468Z,2.60
2019-02-11T05:22:31.306Z,2.80
2019-02-11T05:25:00.742Z,2.97
2019-02-11T05:27:29.255Z,2.30
2019-02-11T05:29:57.350Z,2.83
2019-02-11T05:32:25.649Z,2.70
2019-02-11T05:34:53.813Z,2.57
2019-02-11T05:37:21.822Z,2.80
2019-02-11T05:39:51.022Z,2.90
2019-02-11T05:42:19.172Z,2.60
2019-02-11T05:44:53.560Z,2.87
2019-02-11T05:47:17.261Z,2.40
2019-02-11T05:49:45.306Z,2.47
2019-02-11T05:52:13.426Z,2.80
2019-02-11T05:54:44.537Z,2.50
2019-02-11T05:57:12.812Z,2.33
2019-02-11T05:59:40.803Z,2.73
2019-02-11T06:02:08.773Z,3.17
2019-02-11T06:04:38.638Z,2.57
2019-02-11T06:07:10.279Z,2.70
2019-02-11T06:09:38.575Z,2.70
2019-02-11T06:12:07.880Z,2.47
2019-02-11T06:14:38.963Z,3.37
2019-02-11T06:17:08.143Z,2.63
2019-02-11T06:19:36.178Z,2.53
2019-02-11T06:22:04.145Z,2.23
2019-02-11T06:24:34.079Z,2.40
2019-02-11T06:27:03.191Z,2.33
2019-02-11T06:29:32.353Z,2.40
2019-02-11T06:32:01.971Z,2.83
2019-02-11T06:34:33.834Z,2.40
2019-02-11T06:37:01.627Z,3.30
2019-02-11T06:39:29.649Z,2.20
2019-02-11T06:41:58.340Z,3.17
2019-02-11T06:44:26.427Z,3.27
2019-02-11T06:46:54.391Z,2.73
2019-02-11T06:49:22.624Z,2.63
2019-02-11T06:51:50.715Z,2.60
2019-02-11T06:54:19.083Z,2.53
2019-02-11T06:56:49.470Z,2.73
2019-02-11T06:59:18.066Z,2.43
2019-02-11T07:01:46.742Z,2.90
2019-02-11T07:04:15.244Z,3.03
2019-02-11T07:06:43.266Z,2.43
2019-02-11T07:09:12.762Z,3.03
2019-02-11T07:11:40.919Z,3.60
2019-02-11T07:14:08.929Z,3.13
2019-02-11T07:16:37.072Z,3.17
2019-02-11T07:19:06.997Z,3.23
2019-02-11T07:21:35.060Z,3.17
2019-02-11T07:24:03.045Z,3.27
2019-02-11T07:26:31.126Z,3.30
2019-02-11T07:28:59.099Z,3.00
2019-02-11T07:31:27.044Z,3.47
2019-02-11T07:33:55.009Z,3.47
2019-02-11T07:36:23.160Z,3.53
2019-02-11T07:38:51.073Z,3.07
2019-02-11T07:41:21.554Z,3.10
2019-02-11T07:43:56.593Z,3.50
2019-02-11T07:46:31.631Z,3.17
2019-02-11T07:48:59.613Z,3.03
2019-02-11T07:51:27.645Z,2.93
2019-02-11T07:53:55.596Z,2.47
2019-02-11T07:56:23.601Z,3.00
2019-02-11T07:58:51.571Z,2.60
2019-02-11T08:01:19.587Z,2.63
2019-02-11T08:03:52.339Z,3.20
2019-02-11T08:06:20.692Z,2.60
2019-02-11T08:08:49.020Z,3.40
2019-02-11T08:11:17.159Z,2.43
2019-02-11T08:13:45.223Z,2.97
2019-02-11T08:16:14.651Z,2.30
2019-02-11T08:18:42.774Z,2.70
2019-02-11T08:21:10.732Z,2.80
2019-02-11T08:23:38.790Z,2.40
2019-02-11T08:26:06.805Z,2.77
2019-02-11T08:28:36.002Z,2.10
2019-02-11T08:31:05.536Z,2.47
2019-02-11T08:33:33.744Z,3.03
2019-02-11T08:36:01.974Z,2.00
2019-02-11T08:38:30.154Z,2.37
2019-02-11T08:40:58.178Z,2.00
2019-02-11T08:43:26.225Z,2.57
2019-02-11T08:45:54.245Z,2.43
2019-02-11T08:48:22.328Z,2.43
2019-02-11T08:50:50.403Z,2.40
2019-02-11T08:53:18.472Z,2.30
2019-02-11T08:55:46.524Z,2.30
2019-02-11T08:58:15.496Z,2.43
2019-02-11T09:00:45.583Z,2.37
2019-02-11T09:03:13.657Z,2.00
2019-02-11T09:05:41.855Z,2.73
2019-02-11T09:08:39.424Z,2.53
2019-02-11T09:11:07.533Z,2.80
2019-02-11T09:13:35.644Z,2.57
2019-02-11T09:16:03.840Z,2.17
2019-02-11T09:18:32.834Z,2.30
2019-02-11T09:21:01.369Z,2.47
2019-02-11T09:23:33.299Z,2.63
2019-02-11T09:26:02.762Z,2.40
2019-02-11T09:28:30.985Z,2.90
2019-02-11T09:30:59.122Z,2.40
2019-02-11T09:33:27.217Z,1.97
2019-02-11T09:35:57.628Z,2.27
2019-02-11T09:38:31.893Z,2.27
2019-02-11T09:41:01.669Z,2.10
2019-02-11T09:43:30.990Z,2.40
2019-02-11T09:46:04.029Z,2.60
2019-02-11T09:48:35.199Z,2.30
2019-02-11T09:51:05.015Z,2.13
2019-02-11T09:53:34.210Z,1.77
2019-02-11T09:56:16.117Z,1.93
2019-02-11T09:58:46.514Z,1.77
2019-02-11T10:01:14.747Z,1.60
2019-02-11T10:03:43.592Z,2.10
2019-02-11T10:06:11.782Z,2.00
2019-02-11T10:08:39.885Z,2.70
2019-02-11T10:11:09.779Z,2.23
2019-02-11T10:13:37.840Z,2.07
2019-02-11T10:16:12.280Z,1.90
2019-02-11T10:18:36.809Z,2.23
2019-02-11T10:21:05.004Z,2.07
2019-02-11T10:23:34.210Z,2.37
2019-02-11T10:26:02.353Z,2.17
2019-02-11T10:28:30.906Z,3.27
2019-02-11T10:31:00.923Z,2.50
2019-02-11T10:33:30.564Z,2.27
2019-02-11T10:35:59.013Z,2.00
2019-02-11T10:38:36.473Z,2.23
2019-02-11T10:41:03.575Z,2.97
2019-02-11T10:43:31.728Z,2.03
2019-02-11T10:45:59.853Z,2.00
2019-02-11T10:48:29.288Z,2.07
2019-02-11T10:51:03.350Z,2.37
2019-02-11T10:53:31.821Z,2.67
2019-02-11T10:55:59.893Z,2.20
2019-02-11T10:58:31.508Z,2.50
2019-02-11T11:01:00.270Z,2.53
2019-02-11T11:03:28.662Z,2.47
2019-02-11T11:05:57.104Z,2.77
2019-02-11T11:08:25.165Z,2.30
2019-02-11T11:10:53.256Z,2.47
2019-02-11T11:13:21.735Z,2.73
2019-02-11T11:15:49.673Z,2.30
2019-02-11T11:18:17.983Z,2.40
2019-02-11T11:20:45.948Z,2.53
2019-02-11T11:23:15.171Z,2.43
2019-02-11T11:25:43.683Z,2.23
2019-02-11T11:28:11.668Z,2.10
2019-02-11T11:30:39.639Z,2.33
2019-02-11T11:33:07.716Z,2.90
2019-02-11T11:35:35.761Z,2.20
2019-02-11T11:38:06.034Z,2.27
2019-02-11T11:40:33.459Z,2.17
2019-02-11T11:43:02.552Z,1.93
2019-02-11T11:45:30.660Z,1.70
2019-02-11T11:48:00.655Z,1.53
2019-02-11T11:50:28.691Z,1.50
2019-02-11T11:52:56.640Z,1.73
2019-02-11T11:55:24.913Z,1.90
2019-02-11T11:57:54.349Z,1.97
2019-02-11T12:00:26.136Z,1.60
2019-02-11T12:03:05.029Z,1.60
2019-02-11T12:05:26.034Z,1.40
2019-02-11T12:07:54.066Z,1.73
2019-02-11T12:10:22.228Z,1.57
2019-02-11T12:12:51.667Z,1.70
2019-02-11T12:15:21.823Z,1.37
2019-02-11T12:17:50.717Z,1.77
2019-02-11T12:20:18.744Z,1.90
2019-02-11T12:22:49.632Z,2.27
2019-02-11T12:25:20.584Z,2.50
2019-02-11T12:27:50.188Z,2.00
2019-02-11T12:30:19.939Z,1.87
2019-02-11T12:32:55.768Z,2.43
2019-02-11T12:35:24.158Z,2.40
2019-02-11T12:37:52.311Z,2.10
2019-02-11T12:40:22.064Z,2.00
2019-02-11T12:42:53.912Z,2.23
2019-02-11T12:45:22.602Z,2.20
2019-02-11T12:47:50.915Z,2.10
2019-02-11T12:50:19.110Z,2.20
2019-02-11T12:52:47.579Z,1.83
2019-02-11T12:55:15.796Z,1.97
2019-02-11T12:57:43.839Z,2.40
2019-02-11T13:00:17.405Z,2.27
2019-02-11T13:02:45.899Z,2.07
2019-02-11T13:05:14.385Z,2.20
2019-02-11T13:07:42.822Z,2.60
2019-02-11T13:10:14.241Z,2.03
2019-02-11T13:12:42.410Z,2.10
2019-02-11T13:15:10.749Z,2.60
2019-02-11T13:17:38.794Z,2.73
2019-02-11T13:20:10.069Z,2.43
2019-02-11T13:22:37.109Z,2.30
2019-02-11T13:25:23.058Z,2.73
2019-02-11T13:27:51.123Z,2.13
2019-02-11T13:30:19.609Z,2.83
2019-02-11T13:32:48.659Z,2.50
2019-02-11T13:35:17.003Z,2.87
2019-02-11T13:37:45.129Z,2.50
2019-02-11T13:40:14.531Z,2.63
2019-02-11T13:42:42.616Z,2.23
2019-02-11T13:45:12.657Z,2.60
2019-02-11T13:47:55.169Z,2.50
2019-02-11T13:50:17.814Z,2.60
2019-02-11T13:52:48.011Z,3.00
2019-02-11T13:55:20.282Z,3.00
2019-02-11T13:57:49.822Z,2.50
2019-02-11T14:00:35.893Z,2.90
2019-02-11T14:03:04.818Z,2.70
2019-02-11T14:05:33.782Z,2.43
2019-02-11T14:08:02.478Z,2.60
2019-02-11T14:10:36.519Z,2.87
2019-02-11T14:13:05.019Z,2.80
2019-02-11T14:15:33.223Z,2.57
2019-02-11T14:18:12.272Z,2.60
2019-02-11T14:20:36.340Z,3.10
2019-02-11T14:23:05.033Z,2.60
2019-02-11T14:25:42.411Z,3.00
2019-02-11T14:28:03.188Z,2.50
2019-02-11T14:30:31.152Z,2.10
2019-02-11T14:32:59.203Z,2.70
2019-02-11T14:35:27.331Z,2.17
2019-02-11T14:37:55.342Z,2.27
2019-02-11T14:40:23.438Z,2.17
2019-02-11T14:42:51.507Z,2.77
2019-02-11T14:45:19.679Z,2.73
2019-02-11T14:47:49.546Z,2.43
2019-02-11T14:50:19.113Z,2.50
2019-02-11T14:52:47.180Z,2.67
2019-02-11T14:55:15.390Z,3.13
2019-02-11T14:57:43.506Z,2.20
2019-02-11T15:00:17.491Z,2.13
2019-02-11T15:02:46.844Z,2.53
2019-02-11T15:05:16.100Z,2.23
2019-02-11T15:07:44.189Z,2.33
2019-02-11T15:10:12.605Z,2.80
2019-02-11T15:12:40.717Z,2.93
2019-02-11T15:15:10.432Z,2.90
2019-02-11T15:17:38.746Z,3.00
2019-02-11T15:20:07.649Z,2.20
2019-02-11T15:22:35.797Z,3.50
2019-02-11T15:25:05.626Z,2.37
2019-02-11T15:27:33.781Z,2.50
2019-02-11T15:30:01.835Z,3.00
2019-02-11T15:32:29.785Z,2.43
2019-02-11T15:34:58.291Z,2.70
2019-02-11T15:37:26.339Z,2.47
2019-02-11T15:39:54.919Z,2.63
2019-02-11T15:42:23.088Z,2.73
2019-02-11T15:44:51.297Z,2.60
2019-02-11T15:47:19.330Z,2.63
2019-02-11T15:49:47.388Z,2.23
2019-02-11T15:52:15.899Z,2.33
2019-02-11T15:54:46.754Z,2.33
2019-02-11T15:57:14.847Z,2.67
2019-02-11T15:59:44.616Z,2.60
2019-02-11T16:02:13.658Z,2.93
2019-02-11T16:04:45.895Z,3.03
2019-02-11T16:07:14.015Z,2.67
2019-02-11T16:09:42.115Z,2.50
2019-02-11T16:12:10.175Z,2.43
2019-02-11T16:14:38.230Z,2.27
2019-02-11T16:17:06.316Z,2.63
2019-02-11T16:19:34.484Z,2.60
2019-02-11T16:22:02.508Z,3.13
2019-02-11T16:24:30.700Z,2.57
2019-02-11T16:26:58.786Z,2.83
2019-02-11T16:29:27.641Z,3.03
2019-02-11T16:32:00.859Z,2.57
2019-02-11T16:34:34.027Z,3.03
2019-02-11T16:37:02.035Z,2.40
2019-02-11T16:39:32.719Z,2.70
2019-02-11T16:42:02.644Z,2.53
2019-02-11T16:44:30.663Z,3.40
2019-02-11T16:47:00.122Z,3.17
2019-02-11T16:49:28.199Z,2.20
2019-02-11T16:51:56.309Z,2.47
2019-02-11T16:54:24.499Z,2.77
2019-02-11T16:56:52.921Z,2.77
2019-02-11T16:59:21.335Z,3.20
2019-02-11T17:01:49.305Z,2.67
2019-02-11T17:04:17.316Z,3.17
2019-02-11T17:06:47.041Z,2.43
2019-02-11T17:09:15.162Z,2.40
2019-02-11T17:11:43.214Z,2.43
2019-02-11T17:14:12.222Z,2.50
2019-02-11T17:16:40.337Z,3.43
2019-02-11T17:19:09.812Z,2.23
2019-02-11T17:21:37.989Z,3.03
2019-02-11T17:24:05.960Z,2.13
2019-02-11T17:26:33.909Z,2.73
2019-02-11T17:29:01.967Z,2.47
2019-02-11T17:31:29.994Z,2.10
2019-02-11T17:33:58.100Z,2.33
2019-02-11T17:36:26.121Z,2.70
2019-02-11T17:38:54.124Z,2.57
2019-02-11T17:41:22.121Z,2.53
2019-02-11T17:43:50.079Z,2.60
2019-02-11T17:46:18.090Z,2.97
2019-02-11T17:48:47.523Z,3.43
2019-02-11T17:51:16.280Z,3.10
2019-02-11T17:53:46.920Z,2.43
2019-02-11T17:56:15.176Z,2.80
2019-02-11T17:58:43.212Z,2.30
2019-02-11T18:01:11.522Z,2.57
2019-02-11T18:03:39.507Z,2.80
2019-02-11T18:06:07.506Z,2.83
2019-02-11T18:08:35.556Z,2.87
2019-02-11T18:11:03.756Z,2.53
2019-02-11T18:13:32.022Z,2.80
2019-02-11T18:16:00.216Z,3.03
2019-02-11T18:18:28.229Z,2.60
2019-02-11T18:20:56.203Z,2.77
2019-02-11T18:23:24.242Z,3.10
2019-02-11T18:25:52.210Z,3.17
2019-02-11T18:28:20.263Z,3.17
2019-02-11T18:30:48.403Z,2.80
2019-02-11T18:33:16.401Z,3.37
2019-02-11T18:35:44.480Z,3.03
2019-02-11T18:38:12.523Z,3.00
2019-02-11T18:40:42.091Z,2.70
2019-02-11T18:43:11.549Z,2.60
2019-02-11T18:45:40.084Z,2.87
2019-02-11T18:48:08.097Z,3.00
2019-02-11T18:50:36.108Z,3.73
2019-02-11T18:53:04.163Z,3.27
2019-02-11T18:55:33.045Z,3.40
2019-02-11T18:58:01.324Z,2.80
2019-02-11T19:00:29.380Z,3.60
2019-02-11T19:02:57.446Z,3.17
2019-02-11T19:05:25.594Z,3.63
2019-02-11T19:07:53.816Z,3.53
2019-02-11T19:10:21.948Z,2.83
2019-02-11T19:12:50.095Z,2.83
2019-02-11T19:15:18.208Z,4.23
2019-02-11T19:17:46.359Z,3.60
2019-02-11T19:20:14.655Z,3.07
2019-02-11T19:22:43.899Z,2.90
2019-02-11T19:25:12.669Z,3.40
2019-02-11T19:27:40.700Z,3.67
2019-02-11T19:30:10.522Z,3.43
2019-02-11T19:32:38.685Z,3.73
2019-02-11T19:35:06.918Z,3.57
2019-02-11T19:37:36.157Z,3.33
2019-02-11T19:40:04.582Z,3.10
2019-02-11T19:42:32.657Z,3.27
2019-02-11T19:45:00.873Z,3.70
2019-02-11T19:47:28.954Z,3.30
2019-02-11T19:49:56.990Z,3.37
2019-02-11T19:52:24.951Z,3.83
2019-02-11T19:54:53.068Z,3.63
2019-02-11T19:57:21.164Z,3.20
2019-02-11T19:59:49.211Z,3.53
2019-02-11T20:02:17.160Z,3.50
2019-02-11T20:04:45.201Z,3.37
2019-02-11T20:07:13.275Z,3.53
2019-02-11T20:09:41.289Z,3.50
2019-02-11T20:12:09.310Z,4.00
2019-02-11T20:14:37.254Z,3.70
2019-02-11T20:17:05.268Z,3.27
2019-02-11T20:19:43.289Z,3.00
2019-02-11T20:22:11.473Z,4.17
2019-02-11T20:24:39.680Z,3.77
2019-02-11T20:27:07.752Z,4.13
2019-02-11T20:29:36.019Z,4.10
2019-02-11T20:32:06.246Z,3.07
2019-02-11T20:34:34.629Z,3.00
2019-02-11T20:37:02.828Z,3.00
2019-02-11T20:39:32.024Z,3.63
2019-02-11T20:42:00.104Z,3.43
2019-02-11T20:44:32.132Z,3.67
2019-02-11T20:47:00.270Z,2.93
2019-02-11T20:49:28.389Z,4.30
2019-02-11T20:51:56.600Z,3.27
2019-02-11T20:54:24.887Z,3.20
2019-02-11T20:56:52.863Z,3.67
2019-02-11T20:59:20.975Z,3.10
2019-02-11T21:01:49.146Z,3.20
2019-02-11T21:04:17.497Z,3.40
2019-02-11T21:06:45.669Z,3.67
2019-02-11T21:09:13.908Z,3.47
2019-02-11T21:11:42.212Z,3.53
2019-02-11T21:14:10.636Z,3.60
2019-02-11T21:16:38.715Z,3.43
2019-02-11T21:19:06.839Z,3.63
2019-02-11T21:21:34.888Z,3.83
2019-02-11T21:24:03.098Z,3.50
2019-02-11T21:26:31.196Z,3.60
2019-02-11T21:29:10.271Z,3.53
2019-02-11T21:31:39.172Z,3.20
2019-02-11T21:34:07.179Z,2.73
2019-02-11T21:36:35.346Z,3.20
2019-02-11T21:39:06.415Z,4.00
2019-02-11T21:41:34.436Z,3.00
2019-02-11T21:44:02.589Z,3.40
2019-02-11T21:46:30.595Z,4.27
2019-02-11T21:48:58.701Z,3.07
2019-02-11T21:51:29.797Z,2.93
2019-02-11T21:53:57.845Z,2.90
2019-02-11T21:56:29.787Z,3.57
2019-02-11T21:59:04.929Z,3.30
2019-02-11T22:01:34.264Z,3.07
2019-02-11T22:04:02.773Z,3.93
2019-02-11T22:06:31.278Z,3.07
2019-02-11T22:08:59.408Z,2.83
2019-02-11T22:11:35.241Z,3.23
2019-02-11T22:14:03.952Z,3.80
2019-02-11T22:16:32.386Z,2.73
2019-02-11T22:19:02.152Z,2.67
2019-02-11T22:21:31.653Z,2.80
2019-02-11T22:24:09.987Z,3.70
2019-02-11T22:26:38.477Z,3.60
2019-02-11T22:29:07.940Z,3.23
2019-02-11T22:31:35.977Z,3.17
2019-02-11T22:34:06.344Z,3.47
2019-02-11T22:36:35.312Z,3.60
2019-02-11T22:39:13.742Z,3.37
2019-02-11T22:41:51.699Z,3.30
2019-02-11T22:44:19.822Z,3.07
2019-02-11T22:46:49.984Z,3.40
2019-02-11T22:49:20.546Z,2.77
2019-02-11T22:51:50.144Z,2.60
2019-02-11T22:54:19.095Z,2.67
2019-02-11T22:56:47.238Z,3.30
2019-02-11T22:59:19.193Z,2.77
2019-02-11T23:01:54.719Z,3.20
2019-02-11T23:04:22.792Z,2.40
2019-02-11T23:06:50.849Z,2.70
2019-02-11T23:09:19.238Z,3.47
2019-02-11T23:11:47.241Z,2.60
2019-02-11T23:14:15.311Z,3.47
2019-02-11T23:16:43.304Z,2.60
2019-02-11T23:19:11.330Z,3.13
2019-02-11T23:21:39.902Z,3.17
2019-02-11T23:24:07.984Z,3.07
2019-02-11T23:26:36.003Z,3.03
2019-02-11T23:29:05.685Z,3.30
2019-02-11T23:31:33.817Z,3.00
2019-02-11T23:34:01.915Z,3.30
2019-02-11T23:36:31.195Z,2.63
2019-02-11T23:39:00.496Z,3.03
2019-02-11T23:41:28.732Z,2.97
2019-02-11T23:43:57.357Z,3.10
2019-02-11T23:46:25.634Z,3.27
2019-02-11T23:48:53.704Z,3.00
2019-02-11T23:51:22.212Z,2.63
2019-02-11T23:53:50.211Z,3.00
2019-02-11T23:56:18.264Z,2.40
2019-02-11T23:58:46.272Z,2.70
